Time;durP1;ratioP1;P1;durP2;ratioP2;P2;SDS_P1;SDS_P2;PMS_P1;PMS_P2;Temp;Humidity;BMP_temperature;BMP_pressure;BME280_temperature;BME280_humidity;BME280_pressure;Samples;Min_cycle;Max_cycle;Signal;HPM_P1;HPM_P2
2022/01/22 00:00:27;;;;;;;8.05;1.50;;;8.50;99.90;;;;;;5052083;28;20025;-73
2022/01/22 00:02:53;;;;;;;10.23;1.95;;;8.50;99.90;;;;;;5051687;28;20473;-74
2022/01/22 00:05:21;;;;;;;9.57;2.20;;;8.50;99.90;;;;;;5052153;28;20024;-74
2022/01/22 00:07:48;;;;;;;8.68;2.00;;;8.50;99.90;;;;;;5051999;28;20028;-74
2022/01/22 00:10:14;;;;;;;7.47;1.83;;;8.60;99.90;;;;;;5051673;28;20100;-74
2022/01/22 00:15:22;;;;;;;7.03;1.77;;;8.70;99.90;;;;;;5051186;28;20036;-75
2022/01/22 00:17:49;;;;;;;7.38;1.88;;;8.80;99.90;;;;;;5050659;28;20043;-75
2022/01/22 00:20:16;;;;;;;;;;;8.90;99.90;;;;;;5030537;28;20133;-75
2022/01/22 00:22:43;;;;;;;7.20;1.75;;;8.90;99.90;;;;;;5031633;28;20428;-74
2022/01/22 00:25:10;;;;;;;6.25;1.80;;;9.00;99.90;;;;;;5031572;28;20108;-75
2022/01/22 00:27:39;;;;;;;6.88;1.85;;;9.00;99.90;;;;;;5030058;28;20482;-75
2022/01/22 00:30:07;;;;;;;7.00;1.58;;;9.00;99.90;;;;;;5029986;28;20223;-75
2022/01/22 00:32:34;;;;;;;5.18;1.50;;;8.90;99.90;;;;;;5031998;28;20029;-75
2022/01/22 00:35:00;;;;;;;4.30;1.52;;;9.00;99.90;;;;;;5031832;28;20033;-75
2022/01/22 00:37:26;;;;;;;5.95;1.35;;;8.90;99.90;;;;;;5031807;28;20032;-75
2022/01/22 00:39:52;;;;;;;10.38;1.80;;;9.00;99.90;;;;;;5031788;28;20047;-75
2022/01/22 00:42:20;;;;;;;5.70;1.40;;;9.00;99.90;;;;;;5031456;28;20072;-75
2022/01/22 00:44:49;;;;;;;6.45;1.48;;;9.00;99.90;;;;;;5031588;28;20103;-75
2022/01/22 00:47:15;;;;;;;5.43;1.50;;;9.10;99.90;;;;;;5031217;28;20034;-75
2022/01/22 00:49:41;;;;;;;8.70;1.87;;;9.10;99.90;;;;;;5031531;28;20084;-75
2022/01/22 00:52:08;;;;;;;4.97;1.00;;;9.10;99.90;;;;;;5031166;28;20087;-75
2022/01/22 00:54:34;;;;;;;8.80;1.53;;;9.10;99.90;;;;;;5031485;28;20033;-73
2022/01/22 00:57:01;;;;;;;6.50;1.52;;;9.10;99.90;;;;;;5031131;28;20037;-75
2022/01/22 00:59:27;;;;;;;10.17;1.60;;;9.10;99.90;;;;;;5029471;28;20133;-74
2022/01/22 01:01:53;;;;;;;3.25;1.08;;;9.10;99.90;;;;;;5029826;28;20029;-74
2022/01/22 01:04:19;;;;;;;7.07;1.10;;;9.10;99.90;;;;;;5031465;28;20409;-74
2022/01/22 01:06:45;;;;;;;3.33;1.15;;;9.20;99.90;;;;;;5031171;28;20029;-74
2022/01/22 01:09:12;;;;;;;7.68;1.40;;;9.20;99.90;;;;;;5030795;28;20026;-74
2022/01/22 01:11:45;;;;;;;4.60;1.30;;;9.20;99.90;;;;;;5030577;28;20431;-73
2022/01/22 01:14:16;;;;;;;7.25;1.23;;;9.20;99.90;;;;;;5029289;28;20022;-74
2022/01/22 01:17:11;;;;;;;5.32;1.10;;;9.30;99.90;;;;;;5029078;28;20060;-74
2022/01/22 01:33:57;;;;;;;6.13;1.15;;;9.30;99.90;;;;;;4988790;28;20133;-74
2022/01/22 01:36:23;;;;;;;5.90;1.20;;;9.30;99.90;;;;;;4989169;28;20332;-74
2022/01/22 01:38:54;;;;;;;6.20;1.50;;;9.30;99.90;;;;;;4988751;28;20475;-74
2022/01/22 01:41:32;;;;;;;8.13;1.13;;;9.20;99.90;;;;;;4989154;28;20336;-74
2022/01/22 01:43:58;;;;;;;7.25;1.42;;;9.20;99.90;;;;;;4988514;28;20045;-74
2022/01/22 01:46:29;;;;;;;7.35;1.23;;;9.10;99.90;;;;;;4988892;28;20117;-74
2022/01/22 01:48:55;;;;;;;9.07;1.52;;;9.20;99.90;;;;;;4988872;28;20026;-73
2022/01/22 01:51:26;;;;;;;6.80;1.13;;;9.20;99.90;;;;;;4972298;28;20038;-74
2022/01/22 01:54:00;;;;;;;7.45;1.40;;;9.20;99.90;;;;;;4988841;28;20022;-74
2022/01/22 01:59:14;;;;;;;7.60;1.38;;;9.20;99.90;;;;;;4989166;28;20105;-73
2022/01/22 02:01:41;;;;;;;4.85;1.05;;;9.30;99.90;;;;;;4988946;28;20118;-73
2022/01/22 02:04:09;;;;;;;6.90;2.03;;;9.30;99.90;;;;;;5010906;28;20037;-74
2022/01/22 02:06:36;;;;;;;9.63;1.50;;;9.30;99.90;;;;;;5050380;28;20454;-74
2022/01/22 02:09:07;;;;;;;6.30;1.42;;;9.30;99.90;;;;;;5050191;28;20531;-74
2022/01/22 02:11:34;;;;;;;5.75;1.20;;;9.30;99.90;;;;;;5050193;28;20021;-74
2022/01/22 02:23:29;;;;;;;;;;;9.30;99.90;;;;;;5050297;28;20122;-74
2022/01/22 02:25:07;;;;;;;9.18;1.52;;;9.40;99.90;;;;;;5050090;28;20035;-74
2022/01/22 02:27:33;;;;;;;6.80;1.30;;;9.40;99.90;;;;;;5032567;28;20021;-74
2022/01/22 02:30:00;;;;;;;6.57;1.40;;;9.40;99.90;;;;;;5049896;28;20104;-74
2022/01/22 02:35:16;;;;;;;7.05;1.40;;;9.20;99.90;;;;;;5049833;28;20116;-74
2022/01/22 02:37:50;;;;;;;8.32;1.42;;;9.20;99.90;;;;;;5049696;28;20047;-74
2022/01/22 02:40:29;;;;;;;7.03;1.45;;;9.10;99.90;;;;;;5051959;28;20142;-74
2022/01/22 02:42:55;;;;;;;4.55;1.20;;;9.10;99.90;;;;;;5053754;28;20221;-74
2022/01/22 02:45:23;;;;;;;4.20;1.20;;;9.10;99.90;;;;;;5035244;28;20021;-74
2022/01/22 02:47:51;;;;;;;3.95;1.30;;;9.10;99.90;;;;;;5053530;28;20433;-74
2022/01/22 02:50:18;;;;;;;4.85;1.20;;;8.90;99.90;;;;;;5053308;28;20064;-74
2022/01/22 02:52:44;;;;;;;5.55;1.20;;;8.90;99.90;;;;;;5053156;28;20035;-71
2022/01/22 02:55:12;;;;;;;7.60;1.33;;;8.90;99.90;;;;;;5053108;28;20035;-74
2022/01/22 02:57:41;;;;;;;6.13;1.70;;;8.90;99.90;;;;;;5052807;28;20041;-73
2022/01/22 03:00:11;;;;;;;8.68;1.67;;;8.80;99.90;;;;;;5053072;28;20025;-74
2022/01/22 03:02:38;;;;;;;6.10;1.30;;;8.80;99.90;;;;;;5053187;28;20092;-74
2022/01/22 03:05:06;;;;;;;3.78;1.20;;;8.70;99.90;;;;;;5052975;28;20104;-73
2022/01/22 03:07:33;;;;;;;4.93;1.13;;;8.60;99.90;;;;;;5053453;28;20025;-75
2022/01/22 03:10:02;;;;;;;;;;;8.60;99.90;;;;;;5053704;28;20040;-74
2022/01/22 03:17:52;;;;;;;6.60;1.55;;;8.60;99.90;;;;;;5052933;28;20401;-74
2022/01/22 03:20:36;;;;;;;8.88;1.55;;;8.60;99.90;;;;;;5052660;28;20061;-75
2022/01/22 03:23:10;;;;;;;9.00;1.20;;;8.60;99.90;;;;;;5052678;28;20513;-74
2022/01/22 03:28:25;;;;;;;6.55;1.30;;;8.70;99.90;;;;;;5052965;28;20052;-74
2022/01/22 03:30:51;;;;;;;3.47;1.23;;;8.70;99.90;;;;;;5052776;28;20067;-74
2022/01/22 03:33:21;;;;;;;8.35;1.70;;;8.60;99.90;;;;;;5052776;28;20445;-74
2022/01/22 03:35:54;;;;;;;6.40;1.30;;;8.60;99.90;;;;;;5052659;28;20091;-75
2022/01/22 03:38:20;;;;;;;6.22;1.27;;;8.60;99.90;;;;;;5052371;28;20099;-75
2022/01/22 03:40:49;;;;;;;2.95;1.27;;;8.50;99.90;;;;;;5052495;28;20029;-74
2022/01/22 03:43:16;;;;;;;8.13;1.25;;;8.60;99.90;;;;;;5052568;28;20029;-74
2022/01/22 03:45:42;;;;;;;;;;;8.50;99.90;;;;;;5052922;28;20082;-73
2022/01/22 03:48:08;;;;;;;2.50;1.20;;;8.60;99.90;;;;;;5052824;28;20319;-74
2022/01/22 03:50:34;;;;;;;8.30;1.25;;;8.60;99.90;;;;;;5052571;28;20255;-74
2022/01/22 03:53:00;;;;;;;3.67;0.97;;;8.60;99.90;;;;;;5052222;28;20048;-75
2022/01/22 03:58:02;;;;;;;5.05;1.23;;;8.60;99.90;;;;;;5052465;28;20037;-74
2022/01/22 04:00:28;;;;;;;6.53;1.10;;;8.50;99.90;;;;;;5052777;28;20021;-73
2022/01/22 04:05:53;;;;;;;6.05;1.15;;;8.60;99.90;;;;;;5052667;28;20250;-73
2022/01/22 04:08:19;;;;;;;6.25;1.02;;;8.70;99.90;;;;;;5034901;28;20025;-74
2022/01/22 04:10:45;;;;;;;5.43;1.10;;;8.60;99.90;;;;;;5052942;28;20429;-75
2022/01/22 04:13:14;;;;;;;5.07;0.88;;;8.60;99.90;;;;;;5052918;28;20379;-75
2022/01/22 04:15:41;;;;;;;6.35;1.00;;;8.70;99.90;;;;;;5052814;28;20134;-74
2022/01/22 04:26:40;;;;;;;3.30;0.90;;;8.80;99.90;;;;;;5053016;28;20063;-74
2022/01/22 04:29:06;;;;;;;4.55;1.10;;;8.80;99.90;;;;;;5053391;28;20025;-74
2022/01/22 04:31:32;;;;;;;6.50;1.45;;;8.90;99.90;;;;;;5053329;28;20032;-75
2022/01/22 04:33:58;;;;;;;3.83;1.00;;;9.00;99.90;;;;;;5034958;28;20497;-73
2022/01/22 04:36:24;;;;;;;4.10;1.40;;;9.00;99.90;;;;;;5052493;28;20287;-75
2022/01/22 04:38:51;;;;;;;4.75;1.10;;;9.00;99.90;;;;;;5052669;28;20392;-75
2022/01/22 04:41:17;;;;;;;4.32;1.13;;;9.00;99.90;;;;;;5052394;28;20425;-74
2022/01/22 04:43:44;;;;;;;4.07;0.95;;;8.80;99.90;;;;;;5033227;28;20119;-74
2022/01/22 04:46:25;;;;;;;9.82;1.13;;;8.80;99.90;;;;;;5050563;28;20036;-73
2022/01/22 04:49:05;;;;;;;8.63;1.48;;;8.80;99.90;;;;;;5049083;28;20061;-74
2022/01/22 04:57:00;;;;;;;2.72;0.93;;;8.60;99.90;;;;;;5032695;28;20532;-74
2022/01/22 04:59:26;;;;;;;4.65;0.90;;;8.60;99.90;;;;;;5031341;28;20025;-75
2022/01/22 05:01:52;;;;;;;4.45;1.30;;;8.60;99.90;;;;;;5031624;28;20102;-75
2022/01/22 05:04:18;;;;;;;5.72;1.15;;;8.70;99.90;;;;;;5032101;28;20375;-74
2022/01/22 05:06:44;;;;;;;3.70;1.02;;;8.70;99.90;;;;;;5032027;28;20087;-74
2022/01/22 05:09:10;;;;;;;4.32;1.00;;;8.70;99.90;;;;;;5031975;28;20473;-73
2022/01/22 05:11:36;;;;;;;8.40;1.10;;;8.70;99.90;;;;;;5030496;28;20075;-74
2022/01/22 05:14:02;;;;;;;4.60;1.17;;;8.60;99.90;;;;;;5031869;28;20071;-75
2022/01/22 05:16:29;;;;;;;5.35;0.93;;;8.70;99.90;;;;;;5032410;28;20030;-73
2022/01/22 05:19:01;;;;;;;4.33;0.93;;;8.80;99.90;;;;;;5031439;28;20037;-74
2022/01/22 05:21:29;;;;;;;6.35;1.08;;;8.80;99.90;;;;;;5032757;28;20115;-75
2022/01/22 05:23:58;;;;;;;3.53;0.90;;;8.80;99.90;;;;;;5032814;28;20021;-74
2022/01/22 05:37:05;;;;;;;5.65;1.40;;;8.90;99.90;;;;;;5032549;28;20478;-73
2022/01/22 05:39:34;;;;;;;3.72;1.02;;;8.90;99.90;;;;;;5032540;28;20470;-75
2022/01/22 05:42:03;;;;;;;4.40;1.30;;;8.90;99.90;;;;;;5032615;28;20109;-75
2022/01/22 05:44:33;;;;;;;3.33;1.10;;;9.00;99.90;;;;;;5031288;28;20101;-74
2022/01/22 05:47:04;;;;;;;7.68;1.80;;;8.90;99.90;;;;;;5032615;28;20171;-73
2022/01/22 05:49:33;;;;;;;2.92;1.05;;;8.80;99.90;;;;;;5032531;28;20155;-74
2022/01/22 05:52:02;;;;;;;3.28;1.30;;;8.80;99.90;;;;;;5032813;28;20029;-74
2022/01/22 05:59:43;;;;;;;6.97;1.25;;;8.60;99.90;;;;;;5043808;28;20043;-74
2022/01/22 06:02:12;;;;;;;6.18;1.58;;;8.70;99.90;;;;;;5052492;28;20032;-74
2022/01/22 06:04:39;;;;;;;5.97;1.48;;;8.70;99.90;;;;;;5052144;28;20032;-75
2022/01/22 06:07:06;;;;;;;7.15;1.27;;;8.70;99.90;;;;;;5052792;28;20061;-76
2022/01/22 06:09:34;;;;;;;3.63;1.35;;;8.80;99.90;;;;;;5051699;28;20481;-75
2022/01/22 06:12:15;;;;;;;8.32;1.38;;;8.80;99.90;;;;;;5052699;28;20025;-75
2022/01/22 06:14:42;;;;;;;4.53;1.20;;;8.80;99.90;;;;;;5055428;28;20052;-75
2022/01/22 06:17:08;;;;;;;4.30;1.90;;;8.80;99.90;;;;;;5055953;28;20039;-73
2022/01/22 06:19:34;;;;;;;6.05;1.80;;;8.80;99.90;;;;;;5056234;28;20079;-75
2022/01/22 06:22:00;;;;;;;5.17;1.17;;;8.90;99.90;;;;;;5056511;28;20110;-74
2022/01/22 06:24:26;;;;;;;3.40;1.20;;;8.90;99.90;;;;;;5055937;28;20028;-74
2022/01/22 06:26:52;;;;;;;8.68;1.20;;;8.90;99.90;;;;;;5055796;28;20028;-75
2022/01/22 06:29:19;;;;;;;3.53;1.00;;;8.90;99.90;;;;;;5054945;28;20108;-76
2022/01/22 06:31:45;;;;;;;4.97;1.00;;;8.90;99.90;;;;;;5054900;28;20040;-74
2022/01/22 06:34:11;;;;;;;4.97;1.17;;;8.90;99.90;;;;;;5055100;28;20381;-75
2022/01/22 06:36:37;;;;;;;7.70;1.30;;;8.90;99.90;;;;;;5055523;28;20496;-75
2022/01/22 06:39:19;;;;;;;3.70;1.05;;;8.90;99.90;;;;;;5054880;28;20041;-75
2022/01/22 06:41:46;;;;;;;3.85;1.20;;;8.90;99.90;;;;;;5056529;28;20382;-75
2022/01/22 06:44:19;;;;;;;;;;;8.90;99.90;;;;;;5055432;28;20021;-75
2022/01/22 06:46:48;;;;;;;6.05;1.33;;;9.30;99.90;;;;;;5054299;28;19940;-77
2022/01/22 06:49:14;;;;;;;4.68;1.08;;;10.00;99.90;;;;;;5052905;28;20162;-75
2022/01/22 06:51:41;;;;;;;3.90;1.23;;;10.90;99.90;;;;;;5052911;28;20029;-75
2022/01/22 06:54:10;;;;;;;3.60;1.00;;;11.60;99.90;;;;;;5052627;28;20104;-76
2022/01/22 06:56:38;;;;;;;4.57;1.13;;;12.30;99.90;;;;;;5053811;28;20052;-75
2022/01/22 06:59:08;;;;;;;4.13;0.90;;;12.90;99.90;;;;;;5053835;28;20084;-76
2022/01/22 07:01:35;;;;;;;3.20;1.00;;;13.60;99.90;;;;;;5053621;28;20063;-76
2022/01/22 07:04:01;;;;;;;2.35;0.80;;;14.00;99.90;;;;;;5053890;28;20032;-75
2022/01/22 07:06:28;;;;;;;6.85;1.23;;;15.50;98.70;;;;;;5054251;28;20052;-75
2022/01/22 07:08:54;;;;;;;4.20;1.40;;;17.20;96.70;;;;;;5055100;28;20025;-77
2022/01/22 07:11:20;;;;;;;6.10;1.05;;;17.80;94.60;;;;;;5037253;28;20035;-77
2022/01/22 07:13:46;;;;;;;3.35;0.98;;;17.40;94.30;;;;;;5054852;28;20079;-78
2022/01/22 07:16:12;;;;;;;5.93;1.13;;;15.90;95.40;;;;;;5055044;28;20047;-80
2022/01/22 07:18:39;;;;;;;4.63;1.42;;;14.60;97.10;;;;;;5055390;28;20075;-77
2022/01/22 07:21:23;;;;;;;6.60;1.35;;;13.70;98.40;;;;;;5055188;28;20386;-77
2022/01/22 07:26:16;;;;;;;4.27;1.27;;;12.30;99.90;;;;;;5054502;28;20021;-77
2022/01/22 07:28:43;;;;;;;5.93;1.95;;;11.70;99.90;;;;;;5055505;28;20017;-78
2022/01/22 07:31:10;;;;;;;3.63;1.30;;;11.30;99.90;;;;;;5055392;28;20060;-78
2022/01/22 07:33:37;;;;;;;3.67;1.33;;;11.20;99.90;;;;;;5055008;28;20031;-80
2022/01/22 07:36:05;;;;;;;5.78;1.33;;;11.50;99.90;;;;;;5054633;28;20033;-78
2022/01/22 07:38:37;;;;;;;4.45;1.50;;;11.90;99.90;;;;;;5054626;28;20036;-77
2022/01/22 07:41:04;;;;;;;18.48;2.13;;;12.40;99.90;;;;;;5054867;28;20139;-78
2022/01/22 07:43:30;;;;;;;4.15;1.40;;;13.00;99.90;;;;;;5054639;28;20166;-78
2022/01/22 07:45:57;;;;;;;4.20;1.45;;;14.00;99.30;;;;;;5054656;28;20040;-77
2022/01/22 07:48:23;;;;;;;3.63;1.23;;;14.90;97.60;;;;;;5055142;28;20450;-78
2022/01/22 07:50:49;;;;;;;4.60;1.17;;;15.60;97.00;;;;;;5055077;28;20025;-76
2022/01/22 07:53:15;;;;;;;4.20;1.23;;;16.00;95.80;;;;;;5054224;28;20459;-79
2022/01/22 07:55:41;;;;;;;6.10;1.30;;;15.90;96.30;;;;;;5054553;28;20667;-77
2022/01/22 07:58:07;;;;;;;5.65;1.35;;;16.30;96.00;;;;;;5034631;28;20116;-77
2022/01/22 08:00:33;;;;;;;5.28;1.40;;;16.30;95.90;;;;;;5034670;28;20022;-76
2022/01/22 08:02:59;;;;;;;5.30;1.30;;;16.30;95.70;;;;;;5027891;28;20120;-77
2022/01/22 08:05:25;;;;;;;4.37;1.13;;;16.10;95.70;;;;;;5053710;28;20336;-76
2022/01/22 08:07:51;;;;;;;7.43;1.33;;;15.90;95.90;;;;;;5053474;28;20262;-77
2022/01/22 08:10:18;;;;;;;6.70;1.40;;;15.90;96.00;;;;;;5054044;28;20020;-78
2022/01/22 08:12:51;;;;;;;6.20;1.27;;;16.00;96.00;;;;;;5053495;28;20748;-76
2022/01/22 08:15:18;;;;;;;4.43;1.10;;;16.00;96.00;;;;;;5054008;28;20032;-77
2022/01/22 08:17:44;;;;;;;;;;;16.00;96.10;;;;;;5054198;28;20056;-77
2022/01/22 08:20:29;;;;;;;4.10;1.02;;;15.90;95.70;;;;;;5053258;28;19976;-74
2022/01/22 08:22:59;;;;;;;4.15;1.42;;;15.70;96.30;;;;;;5037071;28;20036;-77
2022/01/22 08:25:44;;;;;;;4.30;1.50;;;15.80;96.20;;;;;;5054151;28;20078;-71
2022/01/22 08:30:55;;;;;;;6.10;1.67;;;15.90;95.80;;;;;;5053315;28;20044;-77
2022/01/22 08:35:52;;;;;;;2.72;1.17;;;15.80;96.00;;;;;;5053432;28;20377;-76
2022/01/22 08:36:16;;;;;;;4.85;1.33;;;15.70;96.30;;;;;;5051667;28;20044;-77
2022/01/22 08:38:43;;;;;;;3.70;1.33;;;15.90;96.30;;;;;;5052661;28;20045;-77
2022/01/22 08:41:10;;;;;;;6.60;1.50;;;16.00;96.00;;;;;;5053044;28;20096;-77
2022/01/22 08:43:36;;;;;;;8.32;1.40;;;16.10;96.00;;;;;;5052986;28;20077;-77
2022/01/22 08:46:03;;;;;;;4.83;1.50;;;16.30;96.10;;;;;;5035069;28;20488;-77
2022/01/22 08:48:29;;;;;;;4.03;1.20;;;16.00;95.80;;;;;;5034557;28;20029;-76
2022/01/22 08:50:56;;;;;;;4.63;1.70;;;15.80;96.40;;;;;;5052128;28;20093;-79
2022/01/22 08:53:22;;;;;;;4.22;1.10;;;15.40;96.40;;;;;;5052129;28;20032;-76
2022/01/22 08:55:48;;;;;;;4.55;1.00;;;15.30;96.00;;;;;;5052578;28;20021;-76
2022/01/22 08:58:14;;;;;;;9.27;1.13;;;14.80;96.60;;;;;;5033860;28;20090;-75
2022/01/22 09:00:40;;;;;;;2.83;1.00;;;14.70;97.30;;;;;;5052113;28;20473;-77
2022/01/22 09:03:06;;;;;;;5.77;0.90;;;14.00;98.00;;;;;;5051549;28;20036;-77
2022/01/22 09:05:35;;;;;;;4.05;0.77;;;13.60;98.60;;;;;;5051976;28;20271;-76
2022/01/22 09:08:04;;;;;;;3.45;1.00;;;13.50;98.70;;;;;;5052206;28;20063;-76
2022/01/22 09:10:30;;;;;;;2.35;0.90;;;13.60;98.70;;;;;;5052094;28;20092;-77
2022/01/22 09:12:56;;;;;;;4.50;1.00;;;13.70;98.80;;;;;;5052398;28;20025;-76
2022/01/22 09:15:22;;;;;;;2.70;0.73;;;13.90;98.40;;;;;;5052350;28;20082;-76
2022/01/22 09:17:48;;;;;;;6.03;0.80;;;14.10;98.40;;;;;;5052459;28;20033;-74
2022/01/22 09:20:42;;;;;;;2.38;0.90;;;14.20;97.80;;;;;;5051757;28;20791;-75
2022/01/22 09:23:03;;;;;;;4.47;0.90;;;14.10;97.60;;;;;;5051783;28;20063;-76
2022/01/22 09:25:29;;;;;;;6.75;1.05;;;14.40;97.60;;;;;;5052120;28;20131;-74
2022/01/22 09:27:55;;;;;;;3.97;0.90;;;14.60;97.50;;;;;;5052142;28;20032;-76
2022/01/22 09:30:21;;;;;;;2.67;1.08;;;14.60;97.10;;;;;;5052741;28;20107;-76
2022/01/22 09:32:48;;;;;;;4.57;1.23;;;14.70;96.90;;;;;;5052502;28;20025;-76
2022/01/22 09:35:14;;;;;;;3.28;1.10;;;14.80;96.60;;;;;;5052026;28;20021;-75
2022/01/22 09:37:40;;;;;;;4.13;0.98;;;15.00;96.60;;;;;;5052533;28;20068;-76
2022/01/22 09:40:07;;;;;;;5.25;1.13;;;15.10;97.10;;;;;;5052424;28;20100;-77
2022/01/22 09:42:33;;;;;;;4.00;1.60;;;15.30;95.60;;;;;;5052288;28;20040;-78
2022/01/22 09:45:00;;;;;;;5.32;1.13;;;15.50;95.50;;;;;;5052401;28;20155;-76
2022/01/22 09:47:27;;;;;;;5.53;1.00;;;15.50;95.80;;;;;;5051997;28;20030;-77
2022/01/22 09:49:52;;;;;;;;;;;15.10;95.60;;;;;;5037959;28;20255;-77
2022/01/22 09:52:19;;;;;;;20.52;1.55;;;14.70;96.20;;;;;;5055437;28;19908;-77
2022/01/22 09:54:45;;;;;;;;;;;14.40;96.90;;;;;;5055572;28;20021;-76
2022/01/22 09:57:13;;;;;;;5.60;1.03;;;14.50;96.80;;;;;;5055111;28;20232;-75
2022/01/22 09:59:39;;;;;;;2.55;1.10;;;14.50;96.90;;;;;;5055259;28;20271;-76
2022/01/22 10:02:11;;;;;;;5.63;0.80;;;14.60;96.60;;;;;;5055010;28;20025;-77
2022/01/22 10:04:39;;;;;;;10.48;1.00;;;14.60;96.90;;;;;;5056341;28;20275;-74
2022/01/22 10:07:14;;;;;;;7.90;1.30;;;14.80;97.20;;;;;;5055114;28;20051;-74
2022/01/22 10:10:01;;;;;;;6.45;1.40;;;14.90;96.70;;;;;;5054843;28;20033;-72
2022/01/22 10:12:29;;;;;;;;;;;14.90;96.30;;;;;;5054628;28;20017;-73
2022/01/22 10:15:19;;;;;;;4.20;0.90;;;14.50;96.80;;;;;;5054957;28;20414;-74
2022/01/22 10:17:54;;;;;;;4.43;0.90;;;14.20;97.30;;;;;;5055263;28;20398;-75
2022/01/22 10:20:32;;;;;;;2.90;0.80;;;14.20;97.60;;;;;;5036791;28;20068;-74
2022/01/22 10:23:05;;;;;;;2.67;1.00;;;14.30;97.70;;;;;;5055436;28;20117;-75
2022/01/22 10:25:38;;;;;;;2.92;0.90;;;14.40;97.30;;;;;;5055117;28;20021;-73
2022/01/22 10:28:17;;;;;;;3.85;1.13;;;14.50;97.20;;;;;;5055149;28;20449;-74
2022/01/22 10:30:45;;;;;;;4.65;1.60;;;14.50;97.30;;;;;;5055133;28;20021;-74
2022/01/22 10:33:31;;;;;;;4.60;1.02;;;14.70;97.00;;;;;;5055303;28;20492;-74
2022/01/22 10:36:19;;;;;;;3.15;1.17;;;14.60;97.00;;;;;;5055072;28;20036;-74
2022/01/22 10:38:47;;;;;;;4.45;1.20;;;14.30;96.70;;;;;;5055208;28;20091;-74
2022/01/22 10:41:16;;;;;;;3.05;1.15;;;14.10;97.00;;;;;;5054949;28;20052;-74
2022/01/22 10:43:54;;;;;;;2.80;1.17;;;14.10;97.50;;;;;;5054897;28;20532;-74
2022/01/22 10:46:44;;;;;;;3.30;1.30;;;14.10;97.50;;;;;;5054644;28;20013;-73
2022/01/22 10:49:15;;;;;;;3.25;1.25;;;14.30;97.30;;;;;;5036500;28;20437;-74
2022/01/22 10:51:49;;;;;;;3.40;1.15;;;14.40;97.60;;;;;;5054480;28;20025;-71
2022/01/22 10:54:17;;;;;;;2.65;1.00;;;14.30;97.30;;;;;;5054027;28;20032;-73
2022/01/22 10:56:44;;;;;;;3.67;0.90;;;14.20;97.20;;;;;;5053961;28;20020;-73
2022/01/22 10:59:11;;;;;;;;;;;14.10;96.90;;;;;;5054023;28;20480;-73
2022/01/22 11:01:51;;;;;;;1.85;0.80;;;13.90;97.10;;;;;;5053037;28;19905;-73
2022/01/22 11:04:29;;;;;;;6.50;1.15;;;13.90;97.30;;;;;;5053933;28;20051;-75
2022/01/22 11:07:04;;;;;;;2.90;0.90;;;14.00;97.50;;;;;;5054415;28;20017;-73
2022/01/22 11:09:31;;;;;;;3.50;1.35;;;14.10;97.50;;;;;;5053976;28;20029;-73
2022/01/22 11:11:59;;;;;;;3.30;1.13;;;14.10;97.80;;;;;;5035144;28;20029;-68
2022/01/22 11:14:28;;;;;;;4.25;1.00;;;14.20;97.30;;;;;;5052347;28;20040;-74
2022/01/22 11:16:54;;;;;;;4.65;1.10;;;14.40;97.10;;;;;;5053145;28;20091;-73
2022/01/22 11:19:32;;;;;;;1.95;1.00;;;14.40;97.10;;;;;;5034793;28;20044;-73
2022/01/22 11:22:11;;;;;;;4.55;1.20;;;14.50;96.90;;;;;;5035377;28;20021;-73
2022/01/22 11:24:50;;;;;;;3.22;1.08;;;14.70;96.80;;;;;;5035355;28;20048;-74
2022/01/22 11:27:19;;;;;;;6.40;1.77;;;14.70;96.60;;;;;;5035439;28;20032;-74
2022/01/22 11:30:06;;;;;;;3.80;1.05;;;14.80;97.20;;;;;;5053744;28;20071;-74
2022/01/22 11:32:39;;;;;;;3.72;1.08;;;14.80;96.70;;;;;;5038883;28;20032;-74
2022/01/22 11:35:08;;;;;;;3.97;1.00;;;14.80;97.00;;;;;;5054085;28;20029;-73
2022/01/22 11:37:39;;;;;;;2.33;1.00;;;14.60;97.10;;;;;;5053012;28;20141;-74
2022/01/22 11:40:20;;;;;;;2.55;0.90;;;14.30;96.90;;;;;;5053048;28;20473;-74
2022/01/22 11:43:00;;;;;;;2.63;0.98;;;14.10;96.60;;;;;;5053700;28;20025;-74
2022/01/22 11:45:30;;;;;;;5.53;1.20;;;14.00;97.00;;;;;;5053051;28;20037;-74
2022/01/22 11:48:17;;;;;;;3.15;1.13;;;13.80;96.80;;;;;;5052754;28;20173;-74
2022/01/22 11:50:50;;;;;;;4.15;1.05;;;13.70;97.30;;;;;;5052884;28;20036;-75
2022/01/22 11:53:34;;;;;;;3.92;1.15;;;13.70;97.50;;;;;;5053001;28;20040;-74
2022/01/22 11:56:25;;;;;;;3.95;1.60;;;13.60;97.70;;;;;;5053058;28;20048;-74
2022/01/22 11:59:00;;;;;;;3.80;1.20;;;13.70;97.40;;;;;;5052321;28;20037;-74
2022/01/22 12:01:41;;;;;;;3.30;1.05;;;13.70;97.40;;;;;;5051467;28;20073;-74
2022/01/22 12:04:10;;;;;;;2.35;0.88;;;13.70;97.20;;;;;;5051344;28;20116;-74
2022/01/22 12:06:37;;;;;;;2.47;0.90;;;13.80;96.70;;;;;;5051765;28;20087;-74
2022/01/22 12:09:15;;;;;;;2.80;1.30;;;13.80;96.70;;;;;;5051714;28;20373;-75
2022/01/22 12:14:48;;;;;;;3.30;1.40;;;13.70;96.50;;;;;;5052396;28;20047;-74
2022/01/22 12:17:26;;;;;;;4.03;1.45;;;13.80;97.10;;;;;;5053012;28;20127;-74
2022/01/22 12:20:16;;;;;;;2.83;1.20;;;14.00;96.80;;;;;;5052772;28;20079;-74
2022/01/22 12:22:38;;;;;;;6.07;1.40;;;13.80;96.40;;;;;;5032772;28;20029;-75
2022/01/22 12:25:24;;;;;;;6.13;1.63;;;13.90;96.80;;;;;;5032908;28;20029;-74
2022/01/22 12:27:52;;;;;;;6.93;1.52;;;14.10;96.70;;;;;;5033037;28;20033;-74
2022/01/22 12:30:36;;;;;;;4.30;1.30;;;14.10;96.20;;;;;;5033090;28;20022;-75
2022/01/22 12:33:05;;;;;;;5.38;1.17;;;14.10;96.30;;;;;;5033551;28;20474;-74
2022/01/22 12:35:36;;;;;;;4.10;1.45;;;14.10;95.80;;;;;;5033264;28;20025;-75
2022/01/22 12:38:17;;;;;;;4.00;1.00;;;14.00;96.30;;;;;;5033333;28;20057;-72
2022/01/22 12:40:44;;;;;;;5.18;1.30;;;13.90;96.10;;;;;;5033406;28;20075;-73
2022/01/22 12:43:14;;;;;;;3.95;1.15;;;13.90;96.60;;;;;;5032532;28;20161;-74
2022/01/22 12:45:44;;;;;;;3.50;1.20;;;13.80;96.20;;;;;;5032861;28;20068;-75
2022/01/22 12:48:13;;;;;;;3.47;0.98;;;13.70;96.30;;;;;;5032641;28;20022;-74
2022/01/22 12:50:39;;;;;;;3.08;0.95;;;13.60;96.50;;;;;;5033036;28;20340;-75
2022/01/22 12:53:11;;;;;;;2.58;1.13;;;13.50;96.60;;;;;;5032392;28;20091;-74
2022/01/22 12:56:02;;;;;;;4.18;1.10;;;13.50;96.60;;;;;;5014688;28;20112;-73
2022/01/22 12:58:31;;;;;;;4.50;1.38;;;13.40;96.60;;;;;;5032782;28;20030;-74
2022/01/22 13:01:12;;;;;;;4.75;1.30;;;13.40;97.00;;;;;;5014928;28;20083;-74
2022/01/22 13:03:43;;;;;;;4.75;1.20;;;13.30;96.80;;;;;;5015057;28;20029;-72
2022/01/22 13:06:09;;;;;;;3.78;1.00;;;13.40;96.80;;;;;;5033607;28;20028;-73
2022/01/22 13:08:36;;;;;;;6.55;1.30;;;13.30;97.00;;;;;;5052266;28;20029;-74
2022/01/22 13:11:07;;;;;;;4.78;1.23;;;13.20;97.20;;;;;;5052318;28;20025;-76
2022/01/22 13:13:37;;;;;;;3.00;1.27;;;13.10;96.60;;;;;;5034759;28;20033;-75
2022/01/22 13:16:13;;;;;;;3.92;1.00;;;13.10;96.90;;;;;;5052227;28;20465;-75
2022/01/22 13:18:40;;;;;;;2.75;1.08;;;13.00;96.40;;;;;;5052703;28;20040;-73
2022/01/22 13:21:08;;;;;;;4.28;1.40;;;13.10;97.00;;;;;;5034410;28;20044;-78
2022/01/22 13:23:35;;;;;;;5.20;1.30;;;13.20;96.20;;;;;;5052505;28;20021;-78
2022/01/22 13:26:01;;;;;;;4.75;1.17;;;13.20;96.60;;;;;;5052446;28;20095;-79
2022/01/22 13:28:35;;;;;;;2.53;1.10;;;13.20;96.10;;;;;;5052944;28;20029;-77
2022/01/22 13:31:17;;;;;;;2.25;1.00;;;13.10;96.70;;;;;;5052868;28;20025;-78
2022/01/22 13:36:26;;;;;;;4.35;1.30;;;13.30;97.00;;;;;;5052194;28;20028;-77
2022/01/22 13:49:51;;;;;;;4.78;1.00;;;13.30;96.00;;;;;;5052559;28;20040;-76
2022/01/22 13:52:19;;;;;;;6.43;1.30;;;13.50;95.70;;;;;;5052137;28;20550;-76
2022/01/22 13:54:48;;;;;;;4.75;1.20;;;13.60;96.00;;;;;;5052071;28;20021;-76
2022/01/22 13:57:22;;;;;;;3.35;1.23;;;13.70;95.70;;;;;;5034085;28;20033;-77
2022/01/22 13:59:52;;;;;;;3.25;1.10;;;13.70;95.60;;;;;;5035008;28;20024;-79
2022/01/22 14:04:48;;;;;;;3.80;1.20;;;13.40;96.00;;;;;;5051830;28;20033;-76
2022/01/22 14:07:40;;;;;;;3.17;1.20;;;13.40;96.10;;;;;;5052529;28;20104;-71
2022/01/22 14:10:12;;;;;;;2.50;0.90;;;13.40;96.00;;;;;;5034751;28;20071;-72
2022/01/22 14:12:47;;;;;;;6.85;1.40;;;13.30;96.00;;;;;;5052582;28;20025;-75
2022/01/22 14:15:29;;;;;;;4.78;1.30;;;13.10;96.50;;;;;;5052337;28;20068;-74
2022/01/22 14:18:19;;;;;;;8.07;1.23;;;13.20;96.70;;;;;;5052287;28;20108;-75
2022/01/22 14:20:48;;;;;;;3.83;1.10;;;13.20;96.50;;;;;;5051876;28;20084;-76
2022/01/22 14:23:24;;;;;;;5.65;1.35;;;13.20;95.90;;;;;;5052259;28;20028;-76
2022/01/22 14:25:54;;;;;;;6.15;1.23;;;13.20;95.80;;;;;;5052348;28;20025;-74
2022/01/22 14:28:40;;;;;;;5.50;1.17;;;13.00;95.80;;;;;;5033983;28;20033;-75
2022/01/22 14:31:24;;;;;;;5.47;1.35;;;13.00;95.80;;;;;;5052247;28;20029;-74
2022/01/22 14:33:51;;;;;;;4.32;1.10;;;12.90;96.10;;;;;;5052464;28;20063;-75
2022/01/22 14:36:21;;;;;;;3.92;1.13;;;12.80;95.70;;;;;;5054797;28;20028;-74
2022/01/22 14:38:53;;;;;;;8.23;1.20;;;12.80;96.10;;;;;;5055495;28;20033;-74
2022/01/22 14:44:26;;;;;;;4.75;1.20;;;12.80;95.40;;;;;;5055526;28;20099;-76
2022/01/22 14:47:02;;;;;;;6.05;1.40;;;12.90;95.40;;;;;;5056093;28;20021;-77
2022/01/22 14:49:40;;;;;;;3.60;1.20;;;13.00;95.10;;;;;;5055658;28;20017;-75